Time;durP1;ratioP1;P1;durP2;ratioP2;P2;SDS_P1;SDS_P2;PMS_P1;PMS_P2;Temp;Humidity;BMP_temperature;BMP_pressure;BME280_temperature;BME280_humidity;BME280_pressure;Samples;Min_cycle;Max_cycle;Signal;HPM_P1;HPM_P2
2023/09/05 00:01:45;;;;;;;156.68;145.55;;;;;;;;;;5071130;28;20470;-62
2023/09/05 00:04:12;;;;;;;140.18;130.15;;;;;;;;;;5064125;28;20062;-62
2023/09/05 00:06:38;;;;;;;98.05;91.28;;;;;;;;;;5070799;28;20032;-61
2023/09/05 00:09:04;;;;;;;68.43;63.83;;;;;;;;;;5062532;28;20069;-61
2023/09/05 00:11:30;;;;;;;111.90;104.38;;;;;;;;;;5070090;28;20032;-62
2023/09/05 00:13:55;;;;;;;143.20;132.27;;;;;;;;;;5070940;28;20021;-62
2023/09/05 00:16:20;;;;;;;76.30;70.83;;;;;;;;;;5062740;28;20059;-62
2023/09/05 00:18:45;;;;;;;185.27;172.88;;;;;;;;;;5070827;28;20043;-62
2023/09/05 00:21:15;;;;;;;111.53;103.20;;;;;;;;;;5070969;28;20022;-62
2023/09/05 00:23:40;;;;;;;97.13;90.82;;;;;;;;;;5070287;28;20032;-61
2023/09/05 00:26:05;;;;;;;56.13;51.88;;;;;;;;;;5062744;28;20012;-62
2023/09/05 00:28:30;;;;;;;118.60;109.73;;;;;;;;;;5069915;28;20037;-62
2023/09/05 00:30:57;;;;;;;65.63;60.93;;;;;;;;;;5065293;28;20495;-60
2023/09/05 00:33:22;;;;;;;155.70;146.23;;;;;;;;;;5064127;28;20306;-60
2023/09/05 00:35:48;;;;;;;147.17;137.20;;;;;;;;;;5066305;28;20119;-62
2023/09/05 00:38:13;;;;;;;62.53;57.97;;;;;;;;;;5069483;28;20032;-60
2023/09/05 00:40:40;;;;;;;134.07;124.13;;;;;;;;;;5068970;28;20031;-60
2023/09/05 00:43:06;;;;;;;81.05;74.95;;;;;;;;;;5058819;28;20056;-60
2023/09/05 00:45:31;;;;;;;124.03;115.97;;;;;;;;;;5066666;28;20062;-60
2023/09/05 00:47:57;;;;;;;93.10;86.47;;;;;;;;;;5070474;28;20009;-60
2023/09/05 00:50:22;;;;;;;215.85;200.30;;;;;;;;;;5064033;28;20032;-62
2023/09/05 00:52:48;;;;;;;81.50;76.18;;;;;;;;;;5070918;28;20032;-61
2023/09/05 00:55:14;;;;;;;91.50;84.90;;;;;;;;;;5068750;28;20056;-60
2023/09/05 00:57:40;;;;;;;92.00;85.47;;;;;;;;;;5064627;28;20036;-60
2023/09/05 01:00:08;;;;;;;78.47;73.35;;;;;;;;;;5065972;28;20021;-62
2023/09/05 01:02:34;;;;;;;77.38;72.50;;;;;;;;;;5066133;28;20025;-62
2023/09/05 01:04:59;;;;;;;117.20;108.80;;;;;;;;;;5069225;28;20020;-60
2023/09/05 01:07:27;;;;;;;79.97;73.97;;;;;;;;;;5068099;28;20029;-62
2023/09/05 01:09:57;;;;;;;50.03;46.63;;;;;;;;;;5066485;28;20051;-59
2023/09/05 01:12:23;;;;;;;139.50;130.18;;;;;;;;;;5060819;28;20025;-60
2023/09/05 01:14:48;;;;;;;114.68;107.25;;;;;;;;;;5069867;28;20020;-62
2023/09/05 01:17:13;;;;;;;109.67;102.77;;;;;;;;;;5064107;28;20023;-62
2023/09/05 01:19:39;;;;;;;119.40;111.90;;;;;;;;;;5069012;28;20602;-62
2023/09/05 01:22:21;;;;;;;109.00;102.00;;;;;;;;;;5064655;28;20065;-62
2023/09/05 01:24:49;;;;;;;99.15;92.20;;;;;;;;;;5060793;28;20023;-63
2023/09/05 01:27:17;;;;;;;131.30;122.75;;;;;;;;;;5068367;28;20517;-62
2023/09/05 01:29:43;;;;;;;82.63;77.07;;;;;;;;;;5069645;28;20036;-63
2023/09/05 01:32:11;;;;;;;242.02;224.27;;;;;;;;;;5066181;28;20017;-60
2023/09/05 01:34:37;;;;;;;236.48;219.75;;;;;;;;;;5064538;28;20151;-60
2023/09/05 01:37:02;;;;;;;116.22;108.90;;;;;;;;;;5054876;28;20038;-62
2023/09/05 01:39:27;;;;;;;79.30;74.30;;;;;;;;;;5069105;28;20028;-60
2023/09/05 01:41:52;;;;;;;137.10;126.40;;;;;;;;;;5064788;28;20690;-62
2023/09/05 01:44:17;;;;;;;94.73;88.47;;;;;;;;;;5069582;28;20048;-62
2023/09/05 01:46:43;;;;;;;206.17;190.67;;;;;;;;;;5067312;28;20027;-62
2023/09/05 01:49:08;;;;;;;235.07;217.93;;;;;;;;;;5068833;28;20025;-62
2023/09/05 01:51:33;;;;;;;101.37;94.27;;;;;;;;;;5064065;28;20043;-62
2023/09/05 01:53:58;;;;;;;174.57;162.57;;;;;;;;;;5069774;28;20020;-61
2023/09/05 01:56:23;;;;;;;276.17;255.50;;;;;;;;;;5065573;28;20497;-61
2023/09/05 01:58:49;;;;;;;282.20;260.03;;;;;;;;;;5068839;28;20031;-60
2023/09/05 02:01:14;;;;;;;289.90;269.70;;;;;;;;;;5069554;28;20031;-60
2023/09/05 02:03:39;;;;;;;203.03;187.27;;;;;;;;;;5065106;28;20525;-60
2023/09/05 02:06:04;;;;;;;88.00;82.00;;;;;;;;;;5062316;28;20016;-62
2023/09/05 02:08:29;;;;;;;133.87;125.30;;;;;;;;;;5068038;28;20028;-62
2023/09/05 02:10:55;;;;;;;100.67;93.63;;;;;;;;;;5069566;28;20056;-62
2023/09/05 02:13:20;;;;;;;116.10;108.57;;;;;;;;;;5066369;28;20086;-62
2023/09/05 02:15:45;;;;;;;66.23;61.10;;;;;;;;;;5069922;28;20580;-62
2023/09/05 02:18:13;;;;;;;112.90;105.63;;;;;;;;;;5068568;28;20055;-61
2023/09/05 02:20:39;;;;;;;97.68;90.90;;;;;;;;;;5073282;28;20052;-62
2023/09/05 02:23:04;;;;;;;86.18;79.57;;;;;;;;;;5071986;28;20063;-62
2023/09/05 02:25:29;;;;;;;78.35;72.60;;;;;;;;;;5073569;28;20012;-63
2023/09/05 02:30:30;;;;;;;81.88;76.35;;;;;;;;;;5278280;22;20053;-59
2023/09/05 02:32:56;;;;;;;61.97;57.83;;;;;;;;;;5016034;28;20506;-59
2023/09/05 02:35:25;;;;;;;168.35;156.40;;;;;;;;;;5013705;28;20022;-60
2023/09/05 02:37:51;;;;;;;80.70;74.35;;;;;;;;;;5016215;28;20053;-58
2023/09/05 02:40:16;;;;;;;129.43;121.40;;;;;;;;;;5014792;28;20076;-58
2023/09/05 02:42:41;;;;;;;92.97;86.30;;;;;;;;;;5014068;28;20030;-60
2023/09/05 02:45:07;;;;;;;84.10;78.38;;;;;;;;;;5021221;28;20053;-59
2023/09/05 02:47:32;;;;;;;67.82;63.05;;;;;;;;;;5023678;28;20026;-57
2023/09/05 02:49:57;;;;;;;60.17;56.07;;;;;;;;;;5018714;28;20027;-60
2023/09/05 02:52:24;;;;;;;66.90;62.23;;;;;;;;;;5018206;28;20463;-60
2023/09/05 02:54:49;;;;;;;41.88;38.83;;;;;;;;;;5014066;28;20022;-60
2023/09/05 02:57:15;;;;;;;110.87;104.10;;;;;;;;;;5028539;28;20026;-59
2023/09/05 02:59:40;;;;;;;76.07;71.27;;;;;;;;;;5023031;28;20862;-59
2023/09/05 03:02:05;;;;;;;186.05;173.63;;;;;;;;;;5027969;28;20472;-60
2023/09/05 03:04:32;;;;;;;185.23;171.07;;;;;;;;;;5018184;28;20444;-60
2023/09/05 03:06:58;;;;;;;212.85;195.93;;;;;;;;;;5024233;28;20024;-60
2023/09/05 03:09:23;;;;;;;56.83;52.75;;;;;;;;;;5020201;28;20097;-60
2023/09/05 03:11:48;;;;;;;69.00;63.78;;;;;;;;;;5022743;28;20121;-59
2023/09/05 03:14:14;;;;;;;87.13;80.63;;;;;;;;;;5013532;28;20018;-60
2023/09/05 03:16:39;;;;;;;121.97;113.82;;;;;;;;;;5020893;28;20422;-60
2023/09/05 03:19:04;;;;;;;109.87;102.03;;;;;;;;;;5017967;28;20022;-59
2023/09/05 03:21:29;;;;;;;309.40;284.70;;;;;;;;;;5020464;28;20075;-60
2023/09/05 03:23:55;;;;;;;64.83;59.90;;;;;;;;;;5018056;28;20025;-61
2023/09/05 03:26:20;;;;;;;132.35;123.13;;;;;;;;;;5020944;28;20027;-60
2023/09/05 03:28:45;;;;;;;310.30;287.70;;;;;;;;;;5013110;28;20096;-60
2023/09/05 03:31:10;;;;;;;75.37;69.77;;;;;;;;;;5016021;28;20400;-60
2023/09/05 03:33:36;;;;;;;93.75;87.15;;;;;;;;;;5033271;28;20152;-59
2023/09/05 03:36:01;;;;;;;108.93;100.60;;;;;;;;;;5013501;28;20110;-59
2023/09/05 03:38:27;;;;;;;145.82;135.07;;;;;;;;;;5022862;28;20071;-60
2023/09/05 03:40:54;;;;;;;178.45;165.30;;;;;;;;;;5023656;28;20041;-60
2023/09/05 03:43:19;;;;;;;92.22;85.97;;;;;;;;;;5024778;28;20448;-60
2023/09/05 03:45:46;;;;;;;229.97;213.00;;;;;;;;;;5026492;28;20547;-59
2023/09/05 03:48:12;;;;;;;135.77;125.50;;;;;;;;;;5021092;28;20303;-60
2023/09/05 03:50:37;;;;;;;87.07;81.07;;;;;;;;;;5021066;28;20026;-60
2023/09/05 03:53:02;;;;;;;142.48;131.85;;;;;;;;;;5030408;28;20392;-60
2023/09/05 03:55:27;;;;;;;88.53;82.23;;;;;;;;;;5027671;28;20030;-60
2023/09/05 03:57:52;;;;;;;106.43;98.60;;;;;;;;;;5031233;28;20033;-61
2023/09/05 04:00:17;;;;;;;259.70;241.00;;;;;;;;;;5018580;28;20511;-60
2023/09/05 04:02:43;;;;;;;82.87;76.90;;;;;;;;;;5016448;28;20036;-63
2023/09/05 04:05:08;;;;;;;108.55;100.55;;;;;;;;;;5012799;28;20393;-60
2023/09/05 04:07:34;;;;;;;312.70;287.95;;;;;;;;;;5016488;28;20102;-64
2023/09/05 04:09:59;;;;;;;109.63;102.65;;;;;;;;;;5017384;28;20117;-60
2023/09/05 04:12:24;;;;;;;174.37;161.67;;;;;;;;;;5025272;28;20021;-61
2023/09/05 04:14:49;;;;;;;125.33;116.60;;;;;;;;;;5025637;28;20096;-60
2023/09/05 04:17:15;;;;;;;82.53;76.67;;;;;;;;;;5015634;28;20500;-61
2023/09/05 04:19:40;;;;;;;64.25;59.80;;;;;;;;;;5015303;28;20388;-60
2023/09/05 04:22:05;;;;;;;200.68;184.20;;;;;;;;;;5016969;28;20033;-60
2023/09/05 04:24:30;;;;;;;115.20;107.30;;;;;;;;;;5020271;28;20037;-60
2023/09/05 04:26:55;;;;;;;365.67;337.60;;;;;;;;;;5016176;28;20021;-60
2023/09/05 04:29:20;;;;;;;165.77;154.07;;;;;;;;;;5021938;28;20108;-60
2023/09/05 04:31:45;;;;;;;189.40;174.97;;;;;;;;;;5027840;28;20029;-61
2023/09/05 04:34:11;;;;;;;97.97;91.47;;;;;;;;;;5011718;28;20775;-60
2023/09/05 04:36:36;;;;;;;76.67;70.63;;;;;;;;;;5016800;28;20025;-60
2023/09/05 04:39:04;;;;;;;62.90;58.17;;;;;;;;;;5028697;28;20267;-60
2023/09/05 04:41:29;;;;;;;196.60;181.98;;;;;;;;;;5017980;28;20037;-60
2023/09/05 04:43:54;;;;;;;223.53;205.93;;;;;;;;;;5018518;28;20030;-60
2023/09/05 04:46:20;;;;;;;90.57;84.40;;;;;;;;;;5033991;28;20033;-61
2023/09/05 04:48:45;;;;;;;205.23;189.60;;;;;;;;;;5035313;28;20021;-61
2023/09/05 04:51:10;;;;;;;163.85;152.63;;;;;;;;;;5017386;28;20087;-60
2023/09/05 04:53:35;;;;;;;134.73;125.73;;;;;;;;;;5033349;28;20476;-61
2023/09/05 04:56:01;;;;;;;156.73;146.20;;;;;;;;;;5013786;28;20447;-60
2023/09/05 04:58:29;;;;;;;153.27;143.15;;;;;;;;;;5010693;28;20450;-61
2023/09/05 05:00:56;;;;;;;56.35;51.63;;;;;;;;;;5013463;28;20025;-61
2023/09/05 05:03:22;;;;;;;54.30;50.40;;;;;;;;;;5023049;28;20108;-59
2023/09/05 05:05:48;;;;;;;159.32;148.45;;;;;;;;;;5019047;28;20159;-59
2023/09/05 05:08:14;;;;;;;;;;;;;;;;;;5014501;28;20442;-60
2023/09/05 05:10:39;;;;;;;172.77;159.68;;;;;;;;;;5022031;28;19912;-59
2023/09/05 05:13:04;;;;;;;165.33;153.73;;;;;;;;;;5014439;28;20029;-58
2023/09/05 05:15:30;;;;;;;329.10;305.73;;;;;;;;;;5027145;28;20022;-59
2023/09/05 05:17:55;;;;;;;137.37;127.87;;;;;;;;;;5024049;28;20095;-60
2023/09/05 05:20:20;;;;;;;128.20;119.13;;;;;;;;;;5018365;28;20040;-60
2023/09/05 05:22:45;;;;;;;134.23;124.37;;;;;;;;;;5025462;28;20029;-58
2023/09/05 05:25:10;;;;;;;204.52;188.75;;;;;;;;;;5038900;28;20016;-58
2023/09/05 05:27:35;;;;;;;202.07;187.30;;;;;;;;;;5050976;28;20075;-61
2023/09/05 05:30:02;;;;;;;153.63;143.63;;;;;;;;;;5023203;28;20522;-61
2023/09/05 05:32:27;;;;;;;;;;;;;;;;;;5037790;28;20029;-62
2023/09/05 05:34:52;;;;;;;209.60;193.25;;;;;;;;;;5025700;28;20000;-61
2023/09/05 05:37:18;;;;;;;169.50;157.15;;;;;;;;;;5028666;28;20079;-61
2023/09/05 05:39:43;;;;;;;272.67;253.90;;;;;;;;;;5030688;28;20024;-61
2023/09/05 05:42:08;;;;;;;214.33;197.43;;;;;;;;;;5022386;28;20447;-59
2023/09/05 05:44:33;;;;;;;212.10;197.02;;;;;;;;;;5017058;28;20452;-58
2023/09/05 05:46:59;;;;;;;144.13;134.07;;;;;;;;;;5013300;28;20037;-59
2023/09/05 05:49:28;;;;;;;190.77;178.60;;;;;;;;;;5017068;28;20025;-59
2023/09/05 05:51:53;;;;;;;151.85;141.02;;;;;;;;;;5044333;28;20381;-58
2023/09/05 05:54:19;;;;;;;239.67;222.43;;;;;;;;;;5027754;28;20063;-59
2023/09/05 05:56:44;;;;;;;188.77;175.93;;;;;;;;;;5011720;28;20036;-59
2023/09/05 05:59:09;;;;;;;172.13;160.80;;;;;;;;;;5017015;28;20027;-59
2023/09/05 06:01:34;;;;;;;154.20;142.27;;;;;;;;;;5029009;28;20435;-59
2023/09/05 06:03:59;;;;;;;185.00;172.40;;;;;;;;;;5024027;28;20014;-59
2023/09/05 06:06:24;;;;;;;173.53;161.07;;;;;;;;;;5018695;28;20385;-59
2023/09/05 06:08:49;;;;;;;198.07;182.23;;;;;;;;;;5010741;28;20109;-59
2023/09/05 06:11:15;;;;;;;177.17;163.10;;;;;;;;;;5014711;28;20465;-58
2023/09/05 06:13:40;;;;;;;211.70;196.83;;;;;;;;;;5014295;28;20033;-59
2023/09/05 06:16:05;;;;;;;256.40;235.07;;;;;;;;;;5020082;28;20018;-59
2023/09/05 06:18:30;;;;;;;221.40;204.43;;;;;;;;;;5026730;28;20037;-60
2023/09/05 06:20:55;;;;;;;205.73;190.20;;;;;;;;;;5012089;28;20112;-58
2023/09/05 06:23:21;;;;;;;204.00;188.40;;;;;;;;;;5016469;28;20033;-59
2023/09/05 06:25:46;;;;;;;288.10;265.67;;;;;;;;;;5014620;28;20057;-60
2023/09/05 06:28:11;;;;;;;360.53;331.10;;;;;;;;;;5019176;28;20468;-59
2023/09/05 06:30:36;;;;;;;295.33;271.83;;;;;;;;;;5028370;28;20026;-60
2023/09/05 06:33:01;;;;;;;225.27;208.87;;;;;;;;;;5015856;28;20535;-60
2023/09/05 06:35:26;;;;;;;354.47;325.63;;;;;;;;;;5014048;28;20509;-59
2023/09/05 06:37:57;;;;;;;238.27;221.23;;;;;;;;;;5017142;28;20029;-59
2023/09/05 06:40:23;;;;;;;239.52;220.43;;;;;;;;;;5020241;28;20017;-58
2023/09/05 06:42:49;;;;;;;323.10;298.65;;;;;;;;;;5022555;28;20392;-59
2023/09/05 06:45:14;;;;;;;185.95;172.38;;;;;;;;;;5019927;28;20025;-60
2023/09/05 06:47:39;;;;;;;344.57;315.80;;;;;;;;;;5015845;28;20039;-59
2023/09/05 06:50:05;;;;;;;356.27;328.43;;;;;;;;;;5028226;28;20059;-59
2023/09/05 06:52:30;;;;;;;402.00;369.88;;;;;;;;;;5049979;28;20024;-59
2023/09/05 06:54:55;;;;;;;326.05;298.63;;;;;;;;;;5049759;28;20147;-60
2023/09/05 06:57:20;;;;;;;360.13;330.20;;;;;;;;;;5034669;28;20026;-60
2023/09/05 06:59:45;;;;;;;235.50;217.27;;;;;;;;;;5027438;28;20116;-60
2023/09/05 07:02:11;;;;;;;368.03;335.87;;;;;;;;;;5028968;28;20025;-60
2023/09/05 07:04:38;;;;;;;262.83;241.40;;;;;;;;;;5042255;28;20037;-59
2023/09/05 07:07:04;;;;;;;225.35;207.85;;;;;;;;;;5053381;28;20468;-58
2023/09/05 07:09:30;;;;;;;357.50;327.25;;;;;;;;;;5048241;28;20013;-59
2023/09/05 07:11:55;;;;;;;259.05;236.00;;;;;;;;;;5025914;28;20121;-59
2023/09/05 07:14:20;;;;;;;293.20;271.20;;;;;;;;;;5022142;28;20010;-59
2023/09/05 07:16:45;;;;;;;272.70;252.30;;;;;;;;;;5029275;28;21012;-59
2023/09/05 07:19:11;;;;;;;372.03;342.40;;;;;;;;;;5038065;28;20021;-60
2023/09/05 07:21:40;;;;;;;450.03;411.10;;;;;;;;;;5017533;28;20108;-59
2023/09/05 07:24:07;;;;;;;255.43;235.65;;;;;;;;;;5018214;28;20030;-59
2023/09/05 07:26:32;;;;;;;356.35;326.67;;;;;;;;;;5019410;28;20025;-59
2023/09/05 07:28:57;;;;;;;200.70;185.73;;;;;;;;;;5021410;28;20026;-60
2023/09/05 07:31:25;;;;;;;255.57;232.87;;;;;;;;;;5031700;28;20084;-60
2023/09/05 07:33:50;;;;;;;261.58;240.85;;;;;;;;;;5033167;28;20022;-59
2023/09/05 07:36:15;;;;;;;194.83;180.50;;;;;;;;;;5021476;28;20029;-59
2023/09/05 07:38:41;;;;;;;392.80;354.05;;;;;;;;;;5012685;28;20948;-59
2023/09/05 07:41:09;;;;;;;361.70;331.67;;;;;;;;;;5015736;28;20033;-58
2023/09/05 07:43:34;;;;;;;230.60;211.85;;;;;;;;;;5018917;28;20515;-58
2023/09/05 07:45:59;;;;;;;313.85;285.77;;;;;;;;;;5047417;28;20013;-60
2023/09/05 07:48:25;;;;;;;319.60;292.33;;;;;;;;;;5024662;28;20504;-60
2023/09/05 07:50:50;;;;;;;227.00;210.90;;;;;;;;;;5019576;28;20480;-59
2023/09/05 07:53:15;;;;;;;220.10;204.52;;;;;;;;;;5012920;28;20568;-59
2023/09/05 07:55:40;;;;;;;333.00;307.17;;;;;;;;;;5013085;28;20120;-60
2023/09/05 07:58:05;;;;;;;304.40;276.35;;;;;;;;;;5024964;28;20033;-60
2023/09/05 08:00:31;;;;;;;359.80;328.37;;;;;;;;;;5042497;28;20025;-59
2023/09/05 08:02:56;;;;;;;514.60;467.03;;;;;;;;;;5038434;28;20107;-59
2023/09/05 08:05:21;;;;;;;440.40;401.53;;;;;;;;;;5052599;28;20467;-59
2023/09/05 08:07:46;;;;;;;383.37;351.53;;;;;;;;;;5052314;28;20041;-58
2023/09/05 08:10:12;;;;;;;489.23;450.02;;;;;;;;;;5037574;28;20437;-59
2023/09/05 08:12:37;;;;;;;372.53;337.07;;;;;;;;;;5024070;28;20488;-60
2023/09/05 08:15:05;;;;;;;408.50;376.23;;;;;;;;;;5036059;28;21037;-58
2023/09/05 08:17:30;;;;;;;470.08;430.50;;;;;;;;;;5030554;28;20113;-60
2023/09/05 08:19:56;;;;;;;477.87;431.90;;;;;;;;;;5031577;28;20104;-60
2023/09/05 08:22:21;;;;;;;502.83;459.90;;;;;;;;;;5032150;28;20044;-58
2023/09/05 08:24:46;;;;;;;400.00;363.43;;;;;;;;;;5025933;28;20072;-60
2023/09/05 08:27:14;;;;;;;442.10;407.40;;;;;;;;;;5011798;28;20041;-60
2023/09/05 08:29:40;;;;;;;475.88;430.65;;;;;;;;;;5035384;28;20051;-60
2023/09/05 08:32:06;;;;;;;338.27;307.88;;;;;;;;;;5051935;28;20033;-60
2023/09/05 08:34:32;;;;;;;380.73;351.60;;;;;;;;;;5051710;28;20024;-60
2023/09/05 08:36:58;;;;;;;474.88;429.55;;;;;;;;;;5019517;28;20053;-60
2023/09/05 08:39:24;;;;;;;695.83;568.95;;;;;;;;;;5012801;28;20018;-59
2023/09/05 08:41:49;;;;;;;429.93;390.20;;;;;;;;;;5031628;28;20024;-61
2023/09/05 08:44:15;;;;;;;370.95;342.48;;;;;;;;;;5047240;28;20171;-60
2023/09/05 08:46:40;;;;;;;430.75;395.73;;;;;;;;;;5045031;28;20025;-60
2023/09/05 08:49:05;;;;;;;388.37;358.03;;;;;;;;;;5031290;28;20105;-58
2023/09/05 08:51:32;;;;;;;477.90;438.73;;;;;;;;;;5031634;28;20021;-60
2023/09/05 08:53:59;;;;;;;576.40;529.00;;;;;;;;;;5024489;28;20124;-60
2023/09/05 08:56:24;;;;;;;444.67;405.25;;;;;;;;;;5027231;28;20018;-59
2023/09/05 08:58:52;;;;;;;331.45;302.48;;;;;;;;;;5031232;28;20025;-59
2023/09/05 09:01:18;;;;;;;324.30;298.33;;;;;;;;;;5022028;28;20025;-58
2023/09/05 09:03:43;;;;;;;395.15;362.05;;;;;;;;;;5018914;28;20026;-59
2023/09/05 09:06:08;;;;;;;268.90;248.63;;;;;;;;;;5029399;28;20536;-58
2023/09/05 09:08:37;;;;;;;312.00;288.33;;;;;;;;;;5012899;28;20121;-58
2023/09/05 09:11:06;;;;;;;363.65;328.65;;;;;;;;;;5033292;28;20035;-60
2023/09/05 09:13:31;;;;;;;362.50;333.98;;;;;;;;;;5036617;28;20044;-59
2023/09/05 09:15:56;;;;;;;274.33;246.93;;;;;;;;;;5031315;28;20021;-59
2023/09/05 09:18:22;;;;;;;362.70;332.67;;;;;;;;;;5031263;28;20478;-60
2023/09/05 09:20:49;;;;;;;336.50;309.08;;;;;;;;;;5031393;28;20114;-59
2023/09/05 09:23:23;;;;;;;329.48;304.10;;;;;;;;;;5029064;28;20087;-60
2023/09/05 09:25:49;;;;;;;421.95;385.27;;;;;;;;;;5017453;28;20026;-60
2023/09/05 09:28:23;;;;;;;566.77;521.40;;;;;;;;;;5018246;28;20033;-58
2023/09/05 09:30:55;;;;;;;418.27;381.63;;;;;;;;;;5023492;28;20585;-58
2023/09/05 09:33:21;;;;;;;414.98;378.05;;;;;;;;;;5016340;28;20053;-60
2023/09/05 09:35:57;;;;;;;357.60;328.73;;;;;;;;;;5016962;28;20504;-59
2023/09/05 09:38:22;;;;;;;355.67;324.75;;;;;;;;;;5029110;28;20033;-58
2023/09/05 09:40:49;;;;;;;352.10;322.17;;;;;;;;;;5031166;28;20028;-59
2023/09/05 09:43:14;;;;;;;385.00;353.30;;;;;;;;;;5031482;28;20519;-57
2023/09/05 09:45:39;;;;;;;457.27;418.40;;;;;;;;;;5031132;28;20053;-58
2023/09/05 09:48:05;;;;;;;338.98;313.58;;;;;;;;;;5026553;28;22610;-58
2023/09/05 09:50:30;;;;;;;385.50;354.40;;;;;;;;;;5028253;28;20037;-59
2023/09/05 09:52:58;;;;;;;390.80;358.13;;;;;;;;;;5029295;28;20476;-59
2023/09/05 09:55:25;;;;;;;356.00;329.08;;;;;;;;;;5017481;28;20404;-59
2023/09/05 09:58:01;;;;;;;416.02;378.55;;;;;;;;;;5030422;28;20013;-59
2023/09/05 10:00:27;;;;;;;495.08;452.67;;;;;;;;;;5030171;28;20021;-59
2023/09/05 10:02:53;;;;;;;463.52;423.00;;;;;;;;;;5028186;28;20142;-59
2023/09/05 10:05:21;;;;;;;442.77;401.08;;;;;;;;;;5028021;28;20019;-59
2023/09/05 10:07:47;;;;;;;445.02;403.60;;;;;;;;;;5016697;28;20025;-59
2023/09/05 10:10:15;;;;;;;607.05;496.63;;;;;;;;;;5009873;28;20022;-58
2023/09/05 10:12:44;;;;;;;452.23;412.63;;;;;;;;;;5015543;28;20028;-59
2023/09/05 10:15:10;;;;;;;424.02;384.02;;;;;;;;;;5030288;28;20391;-59
2023/09/05 10:17:37;;;;;;;465.52;428.70;;;;;;;;;;5027794;28;20025;-59
2023/09/05 10:20:02;;;;;;;;;;;;;;;;;;5030295;28;20048;-59
2023/09/05 10:22:29;;;;;;;403.23;365.00;;;;;;;;;;5027511;28;19963;-59
2023/09/05 10:24:54;;;;;;;312.10;285.08;;;;;;;;;;5018790;28;20010;-59
2023/09/05 10:27:19;;;;;;;421.47;384.23;;;;;;;;;;5010699;28;20381;-60
2023/09/05 10:29:45;;;;;;;402.57;367.73;;;;;;;;;;5010198;28;20457;-59
2023/09/05 10:32:10;;;;;;;;;;;;;;;;;;5017351;28;20136;-58
2023/09/05 10:34:48;;;;;;;325.40;297.70;;;;;;;;;;5030236;28;19911;-58
2023/09/05 10:37:17;;;;;;;366.58;326.90;;;;;;;;;;5027358;28;20021;-59
2023/09/05 10:39:46;;;;;;;368.13;334.42;;;;;;;;;;5016939;28;20528;-58
2023/09/05 10:42:11;;;;;;;599.20;465.58;;;;;;;;;;5016947;28;20052;-57
2023/09/05 10:44:39;;;;;;;437.88;394.45;;;;;;;;;;5022712;28;20017;-59
2023/09/05 10:47:23;;;;;;;364.42;338.95;;;;;;;;;;5014362;28;20372;-58
2023/09/05 10:49:48;;;;;;;374.08;345.13;;;;;;;;;;5023246;28;20560;-57
2023/09/05 10:52:20;;;;;;;462.87;415.03;;;;;;;;;;5042733;28;20152;-58
2023/09/05 10:54:45;;;;;;;450.98;411.73;;;;;;;;;;5031853;28;20021;-60
2023/09/05 10:57:29;;;;;;;502.08;451.45;;;;;;;;;;5023120;28;20036;-59
2023/09/05 10:59:54;;;;;;;484.95;440.08;;;;;;;;;;5019750;28;20033;-60
2023/09/05 11:02:24;;;;;;;276.83;253.63;;;;;;;;;;5024647;28;20026;-58
2023/09/05 11:04:49;;;;;;;346.58;314.63;;;;;;;;;;5014369;28;20443;-60
2023/09/05 11:07:17;;;;;;;382.55;347.27;;;;;;;;;;5014129;28;20480;-59
2023/09/05 11:09:44;;;;;;;475.83;436.65;;;;;;;;;;5020419;28;20085;-59
2023/09/05 11:12:10;;;;;;;602.83;535.58;;;;;;;;;;5025607;28;20207;-60
2023/09/05 11:14:36;;;;;;;347.55;319.88;;;;;;;;;;5052735;28;20016;-60
2023/09/05 11:17:01;;;;;;;468.80;430.80;;;;;;;;;;5037960;28;20030;-60
2023/09/05 11:19:30;;;;;;;441.00;400.95;;;;;;;;;;5015000;28;20026;-58
2023/09/05 11:22:15;;;;;;;683.03;551.20;;;;;;;;;;5034967;28;20029;-59
2023/09/05 11:24:46;;;;;;;417.33;382.48;;;;;;;;;;5013418;28;20022;-58
2023/09/05 11:27:11;;;;;;;395.83;358.95;;;;;;;;;;5029132;28;20013;-60
2023/09/05 11:29:38;;;;;;;387.95;357.38;;;;;;;;;;5037124;28;20064;-60
2023/09/05 11:32:05;;;;;;;567.63;514.22;;;;;;;;;;5032967;28;20013;-59
2023/09/05 11:34:30;;;;;;;455.70;414.48;;;;;;;;;;5035820;28;20095;-59
2023/09/05 11:36:55;;;;;;;349.53;318.20;;;;;;;;;;5026076;28;20451;-59
2023/09/05 11:39:24;;;;;;;513.23;469.90;;;;;;;;;;5014135;28;20037;-60
2023/09/05 11:41:50;;;;;;;468.05;424.52;;;;;;;;;;5031039;28;20767;-59
2023/09/05 11:44:15;;;;;;;603.40;471.38;;;;;;;;;;5032693;28;20436;-60
2023/09/05 11:46:41;;;;;;;424.97;392.57;;;;;;;;;;5028491;28;20110;-58
2023/09/05 11:49:06;;;;;;;488.70;443.77;;;;;;;;;;5021254;28;20029;-59
2023/09/05 11:51:32;;;;;;;480.13;433.02;;;;;;;;;;5018674;28;20431;-59
2023/09/05 11:53:57;;;;;;;392.05;359.05;;;;;;;;;;5018906;28;20523;-59
2023/09/05 11:56:22;;;;;;;503.95;453.80;;;;;;;;;;5020663;28;20361;-58
2023/09/05 11:58:47;;;;;;;484.07;444.77;;;;;;;;;;5012097;28;20010;-59
2023/09/05 12:01:13;;;;;;;482.60;442.20;;;;;;;;;;5028637;28;20009;-58
2023/09/05 12:03:38;;;;;;;410.63;378.33;;;;;;;;;;5029967;28;20407;-58
2023/09/05 12:06:04;;;;;;;525.20;476.02;;;;;;;;;;5022248;28;20025;-59
2023/09/05 12:08:30;;;;;;;543.00;498.40;;;;;;;;;;5021950;28;20421;-59
2023/09/05 12:10:55;;;;;;;;;;;;;;;;;;5019727;28;20022;-59
2023/09/05 12:13:37;;;;;;;500.98;454.55;;;;;;;;;;5024314;28;19935;-60
2023/09/05 12:16:03;;;;;;;372.08;343.33;;;;;;;;;;5024215;28;20425;-58
2023/09/05 12:18:28;;;;;;;490.52;450.48;;;;;;;;;;5028751;28;20030;-58
2023/09/05 12:21:00;;;;;;;492.27;448.80;;;;;;;;;;5022481;28;20022;-59
2023/09/05 12:23:25;;;;;;;455.40;414.25;;;;;;;;;;5024571;28;20022;-59
2023/09/05 12:25:52;;;;;;;481.52;436.67;;;;;;;;;;5042911;28;20566;-60
2023/09/05 12:28:20;;;;;;;468.52;427.02;;;;;;;;;;5042944;28;20028;-59
2023/09/05 12:30:47;;;;;;;509.58;469.40;;;;;;;;;;5051049;28;20019;-60
2023/09/05 12:33:12;;;;;;;441.90;405.70;;;;;;;;;;5035888;28;20018;-60
2023/09/05 12:35:38;;;;;;;465.47;426.33;;;;;;;;;;5023946;28;20369;-59
2023/09/05 12:38:21;;;;;;;610.73;557.63;;;;;;;;;;5037613;28;20025;-59
2023/09/05 12:40:47;;;;;;;598.80;545.95;;;;;;;;;;5022778;28;20079;-60
2023/09/05 12:43:12;;;;;;;536.80;490.83;;;;;;;;;;5019947;28;20499;-59
2023/09/05 12:45:37;;;;;;;539.57;488.43;;;;;;;;;;5015477;28;20018;-60
2023/09/05 12:48:02;;;;;;;455.33;413.77;;;;;;;;;;5013968;28;20022;-60
2023/09/05 12:50:36;;;;;;;548.93;499.67;;;;;;;;;;5015600;28;20025;-60
2023/09/05 12:53:05;;;;;;;474.00;430.17;;;;;;;;;;5042060;28;20438;-59
2023/09/05 12:55:31;;;;;;;646.10;593.90;;;;;;;;;;5034177;28;20477;-60
2023/09/05 12:57:57;;;;;;;604.05;549.85;;;;;;;;;;5023167;28;20049;-60
2023/09/05 13:00:22;;;;;;;400.40;362.42;;;;;;;;;;5039759;28;20048;-60
2023/09/05 13:02:47;;;;;;;472.47;433.37;;;;;;;;;;5020587;28;20381;-60
2023/09/05 13:05:12;;;;;;;513.83;464.13;;;;;;;;;;5035565;28;20048;-60
2023/09/05 13:07:38;;;;;;;558.87;511.50;;;;;;;;;;5051168;28;20499;-58
2023/09/05 13:10:03;;;;;;;389.35;355.50;;;;;;;;;;5012922;28;20021;-59
2023/09/05 13:12:29;;;;;;;457.25;418.63;;;;;;;;;;5021653;28;20531;-59
2023/09/05 13:14:54;;;;;;;557.03;508.33;;;;;;;;;;5030969;28;20029;-59
2023/09/05 13:17:19;;;;;;;480.83;433.83;;;;;;;;;;5029515;28;20022;-58
2023/09/05 13:19:45;;;;;;;557.08;511.42;;;;;;;;;;5027649;28;20464;-60
2023/09/05 13:22:11;;;;;;;512.87;470.53;;;;;;;;;;5050886;28;20013;-59
2023/09/05 13:24:37;;;;;;;424.58;385.27;;;;;;;;;;5038033;28;20568;-59
2023/09/05 13:27:02;;;;;;;538.63;497.17;;;;;;;;;;5021107;28;20166;-58
2023/09/05 13:29:27;;;;;;;556.70;506.42;;;;;;;;;;5011677;28;20053;-58
2023/09/05 13:31:53;;;;;;;514.08;469.55;;;;;;;;;;5011223;28;20029;-59
2023/09/05 13:34:18;;;;;;;527.75;478.58;;;;;;;;;;5011246;28;20049;-59
2023/09/05 13:36:43;;;;;;;638.30;584.10;;;;;;;;;;5010965;28;20017;-59
2023/09/05 13:39:09;;;;;;;;;;;;;;;;;;5010599;28;20045;-59
2023/09/05 13:41:34;;;;;;;637.37;584.73;;;;;;;;;;5016271;28;19924;-58
2023/09/05 13:44:00;;;;;;;547.33;498.25;;;;;;;;;;5014513;28;20026;-59
2023/09/05 13:46:25;;;;;;;467.38;428.98;;;;;;;;;;5013335;28;20384;-59
2023/09/05 13:48:50;;;;;;;509.00;462.60;;;;;;;;;;5016634;28;20428;-58
2023/09/05 13:51:21;;;;;;;510.20;467.33;;;;;;;;;;5014988;28;20022;-58
2023/09/05 13:53:46;;;;;;;460.95;418.63;;;;;;;;;;5010532;28;20026;-60
2023/09/05 13:56:12;;;;;;;420.97;385.67;;;;;;;;;;5007637;28;20083;-59